sensor_id;sensor_type;location;lat;lon;timestamp;pressure;altitude;pressure_sealevel;temperature;humidity
62978;BME280;49073;42.352;23.808;2023-04-30T00:01:51;94386.75;;;10.31;77.44
62978;BME280;49073;42.352;23.808;2023-04-30T00:04:52;94393.34;;;10.14;77.37
62978;BME280;49073;42.352;23.808;2023-04-30T00:07:52;94389.69;;;9.99;76.99
62978;BME280;49073;42.352;23.808;2023-04-30T00:10:53;94391.84;;;9.89;76.51
62978;BME280;49073;42.352;23.808;2023-04-30T00:13:54;94392.13;;;9.84;76.99
62978;BME280;49073;42.352;23.808;2023-04-30T00:16:56;94387.03;;;9.75;77.11
62978;BME280;49073;42.352;23.808;2023-04-30T00:19:56;94388.75;;;9.64;77.94
62978;BME280;49073;42.352;23.808;2023-04-30T00:22:57;94383.00;;;9.62;78.20
62978;BME280;49073;42.352;23.808;2023-04-30T00:25:57;94389.78;;;9.59;79.04
62978;BME280;49073;42.352;23.808;2023-04-30T00:28:58;94388.78;;;9.44;79.83
62978;BME280;49073;42.352;23.808;2023-04-30T00:31:58;94390.66;;;9.44;80.35
62978;BME280;49073;42.352;23.808;2023-04-30T00:34:59;94382.81;;;9.51;80.13
62978;BME280;49073;42.352;23.808;2023-04-30T00:37:59;94382.78;;;9.48;80.08
62978;BME280;49073;42.352;23.808;2023-04-30T00:41:00;94384.09;;;9.38;81.00
62978;BME280;49073;42.352;23.808;2023-04-30T00:44:01;94381.44;;;9.38;80.65
62978;BME280;49073;42.352;23.808;2023-04-30T00:47:02;94381.53;;;9.22;81.67
62978;BME280;49073;42.352;23.808;2023-04-30T00:50:03;94376.56;;;9.20;81.19
62978;BME280;49073;42.352;23.808;2023-04-30T00:53:03;94377.19;;;9.13;82.00
62978;BME280;49073;42.352;23.808;2023-04-30T00:56:05;94378.53;;;9.03;82.13
62978;BME280;49073;42.352;23.808;2023-04-30T00:59:08;94379.63;;;9.02;81.41
62978;BME280;49073;42.352;23.808;2023-04-30T01:02:09;94378.47;;;9.00;81.46
62978;BME280;49073;42.352;23.808;2023-04-30T01:05:10;94386.72;;;8.95;82.00
62978;BME280;49073;42.352;23.808;2023-04-30T01:08:11;94375.31;;;8.94;82.44
62978;BME280;49073;42.352;23.808;2023-04-30T01:11:20;94382.38;;;8.86;83.35
62978;BME280;49073;42.352;23.808;2023-04-30T01:15:13;94369.56;;;8.92;83.50
62978;BME280;49073;42.352;23.808;2023-04-30T01:18:17;94380.16;;;8.88;83.95
62978;BME280;49073;42.352;23.808;2023-04-30T01:21:19;94379.31;;;9.04;83.34
62978;BME280;49073;42.352;23.808;2023-04-30T01:30:54;94370.88;;;9.22;82.48
62978;BME280;49073;42.352;23.808;2023-04-30T01:33:55;94376.38;;;9.09;82.91
62978;BME280;49073;42.352;23.808;2023-04-30T01:40:22;94375.25;;;8.91;83.57
62978;BME280;49073;42.352;23.808;2023-04-30T01:43:38;94377.53;;;8.92;83.01
62978;BME280;49073;42.352;23.808;2023-04-30T01:46:57;94372.59;;;8.91;82.19
62978;BME280;49073;42.352;23.808;2023-04-30T01:53:41;94368.09;;;8.75;80.23
62978;BME280;49073;42.352;23.808;2023-04-30T01:56:53;94373.38;;;8.55;80.09
62978;BME280;49073;42.352;23.808;2023-04-30T02:00:02;94368.78;;;8.52;79.82
62978;BME280;49073;42.352;23.808;2023-04-30T02:03:04;94362.16;;;8.46;79.27
62978;BME280;49073;42.352;23.808;2023-04-30T02:06:04;94364.25;;;8.37;79.45
62978;BME280;49073;42.352;23.808;2023-04-30T02:09:05;94360.94;;;8.24;80.53
62978;BME280;49073;42.352;23.808;2023-04-30T02:12:06;94380.47;;;8.15;81.01
62978;BME280;49073;42.352;23.808;2023-04-30T02:15:07;94361.03;;;8.11;80.45
62978;BME280;49073;42.352;23.808;2023-04-30T02:18:08;94370.63;;;8.00;80.76
62978;BME280;49073;42.352;23.808;2023-04-30T02:21:09;94374.31;;;7.79;81.76
62978;BME280;49073;42.352;23.808;2023-04-30T02:24:09;94368.31;;;7.82;82.31
62978;BME280;49073;42.352;23.808;2023-04-30T02:27:10;94366.94;;;7.89;81.33
62978;BME280;49073;42.352;23.808;2023-04-30T02:30:10;94373.81;;;7.74;81.48
62978;BME280;49073;42.352;23.808;2023-04-30T02:33:11;94374.31;;;7.79;81.30
62978;BME280;49073;42.352;23.808;2023-04-30T02:36:11;94373.38;;;7.71;81.68
62978;BME280;49073;42.352;23.808;2023-04-30T02:39:12;94368.16;;;7.75;80.92
62978;BME280;49073;42.352;23.808;2023-04-30T02:42:13;94359.25;;;7.51;82.25
62978;BME280;49073;42.352;23.808;2023-04-30T02:45:13;94368.38;;;7.54;82.85
62978;BME280;49073;42.352;23.808;2023-04-30T02:48:14;94369.28;;;7.30;83.69
62978;BME280;49073;42.352;23.808;2023-04-30T02:51:15;94378.38;;;7.45;82.82
62978;BME280;49073;42.352;23.808;2023-04-30T02:54:15;94371.69;;;7.35;82.75
62978;BME280;49073;42.352;23.808;2023-04-30T02:57:16;94373.59;;;7.34;83.19
62978;BME280;49073;42.352;23.808;2023-04-30T03:00:16;94380.97;;;7.41;81.70
62978;BME280;49073;42.352;23.808;2023-04-30T03:03:17;94380.56;;;7.26;82.70
62978;BME280;49073;42.352;23.808;2023-04-30T03:06:17;94385.97;;;7.30;81.32
62978;BME280;49073;42.352;23.808;2023-04-30T03:09:18;94380.91;;;7.25;80.95
62978;BME280;49073;42.352;23.808;2023-04-30T03:12:18;94384.38;;;7.13;81.93
62978;BME280;49073;42.352;23.808;2023-04-30T03:15:19;94388.81;;;7.09;81.72
62978;BME280;49073;42.352;23.808;2023-04-30T03:18:21;94394.38;;;7.04;82.33
62978;BME280;49073;42.352;23.808;2023-04-30T03:21:22;94394.25;;;7.00;82.25
62978;BME280;49073;42.352;23.808;2023-04-30T03:24:22;94394.94;;;6.97;82.75
62978;BME280;49073;42.352;23.808;2023-04-30T03:27:24;94395.75;;;6.85;82.98
62978;BME280;49073;42.352;23.808;2023-04-30T03:30:24;94392.44;;;6.88;83.32
62978;BME280;49073;42.352;23.808;2023-04-30T03:33:25;94392.88;;;6.90;83.70
62978;BME280;49073;42.352;23.808;2023-04-30T03:36:26;94398.59;;;6.92;83.16
62978;BME280;49073;42.352;23.808;2023-04-30T03:39:27;94402.25;;;6.88;82.91
62978;BME280;49073;42.352;23.808;2023-04-30T03:42:28;94410.19;;;6.88;83.70
62978;BME280;49073;42.352;23.808;2023-04-30T03:45:28;94419.44;;;6.94;84.83
62978;BME280;49073;42.352;23.808;2023-04-30T03:48:29;94421.63;;;7.04;85.01
62978;BME280;49073;42.352;23.808;2023-04-30T03:51:31;94420.38;;;7.14;85.11
62978;BME280;49073;42.352;23.808;2023-04-30T03:54:32;94425.66;;;7.42;85.31
62978;BME280;49073;42.352;23.808;2023-04-30T03:57:35;94426.91;;;7.33;87.17
62978;BME280;49073;42.352;23.808;2023-04-30T04:00:36;94426.53;;;7.47;87.56
62978;BME280;49073;42.352;23.808;2023-04-30T04:03:37;94436.94;;;7.68;87.55
62978;BME280;49073;42.352;23.808;2023-04-30T04:06:38;94446.34;;;7.81;88.14
62978;BME280;49073;42.352;23.808;2023-04-30T04:09:38;94428.66;;;7.85;88.58
62978;BME280;49073;42.352;23.808;2023-04-30T04:12:39;94438.84;;;7.99;89.48
62978;BME280;49073;42.352;23.808;2023-04-30T04:15:40;94438.50;;;8.17;89.27
62978;BME280;49073;42.352;23.808;2023-04-30T04:18:40;94440.66;;;8.27;89.12
62978;BME280;49073;42.352;23.808;2023-04-30T04:21:41;94443.28;;;8.43;89.23
62978;BME280;49073;42.352;23.808;2023-04-30T04:24:41;94446.22;;;8.54;88.92
62978;BME280;49073;42.352;23.808;2023-04-30T04:27:42;94453.63;;;8.65;88.75
62978;BME280;49073;42.352;23.808;2023-04-30T04:30:42;94457.16;;;8.69;89.67
62978;BME280;49073;42.352;23.808;2023-04-30T04:33:43;94449.88;;;8.66;90.36
62978;BME280;49073;42.352;23.808;2023-04-30T04:36:44;94446.03;;;8.63;91.28
62978;BME280;49073;42.352;23.808;2023-04-30T04:39:45;94450.56;;;8.63;91.21
62978;BME280;49073;42.352;23.808;2023-04-30T04:42:48;94457.84;;;8.66;91.04
62978;BME280;49073;42.352;23.808;2023-04-30T04:45:49;94453.19;;;8.79;89.68
62978;BME280;49073;42.352;23.808;2023-04-30T04:48:51;94454.59;;;8.72;90.06
62978;BME280;49073;42.352;23.808;2023-04-30T04:51:52;94458.50;;;8.79;90.13
62978;BME280;49073;42.352;23.808;2023-04-30T04:54:52;94462.53;;;8.88;89.81
62978;BME280;49073;42.352;23.808;2023-04-30T04:57:53;94456.41;;;8.88;89.88
62978;BME280;49073;42.352;23.808;2023-04-30T05:00:53;94464.75;;;8.86;89.75
62978;BME280;49073;42.352;23.808;2023-04-30T05:03:54;94461.81;;;8.92;89.99
62978;BME280;49073;42.352;23.808;2023-04-30T05:06:55;94466.66;;;9.06;89.23
62978;BME280;49073;42.352;23.808;2023-04-30T05:09:56;94465.63;;;9.10;88.83
62978;BME280;49073;42.352;23.808;2023-04-30T05:12:56;94461.94;;;9.15;88.90
62978;BME280;49073;42.352;23.808;2023-04-30T05:15:57;94465.75;;;9.17;88.43
62978;BME280;49073;42.352;23.808;2023-04-30T05:18:57;94460.09;;;9.39;86.71
62978;BME280;49073;42.352;23.808;2023-04-30T05:21:59;94476.41;;;9.37;87.48
62978;BME280;49073;42.352;23.808;2023-04-30T05:25:00;94465.75;;;9.37;88.18
62978;BME280;49073;42.352;23.808;2023-04-30T05:28:01;94463.19;;;9.41;88.13
62978;BME280;49073;42.352;23.808;2023-04-30T05:31:02;94462.69;;;9.55;87.86
62978;BME280;49073;42.352;23.808;2023-04-30T05:34:03;94463.94;;;9.61;88.59
62978;BME280;49073;42.352;23.808;2023-04-30T05:37:03;94464.00;;;9.65;88.67
62978;BME280;49073;42.352;23.808;2023-04-30T05:40:05;94468.19;;;9.66;87.87
62978;BME280;49073;42.352;23.808;2023-04-30T05:43:06;94470.09;;;9.65;87.64
62978;BME280;49073;42.352;23.808;2023-04-30T05:46:07;94470.09;;;9.65;87.61
62978;BME280;49073;42.352;23.808;2023-04-30T05:49:08;94463.38;;;9.71;86.51
62978;BME280;49073;42.352;23.808;2023-04-30T05:52:09;94472.72;;;9.85;85.77
62978;BME280;49073;42.352;23.808;2023-04-30T05:55:11;94468.53;;;9.84;86.44
62978;BME280;49073;42.352;23.808;2023-04-30T05:58:11;94475.47;;;9.88;85.95
62978;BME280;49073;42.352;23.808;2023-04-30T06:01:12;94468.78;;;9.98;85.53
62978;BME280;49073;42.352;23.808;2023-04-30T06:04:13;94471.84;;;10.00;82.89
62978;BME280;49073;42.352;23.808;2023-04-30T06:07:13;94468.44;;;10.00;81.89
62978;BME280;49073;42.352;23.808;2023-04-30T06:10:14;94468.44;;;10.00;81.42
62978;BME280;49073;42.352;23.808;2023-04-30T06:13:14;94474.28;;;10.09;81.61
62978;BME280;49073;42.352;23.808;2023-04-30T06:16:15;94478.59;;;10.17;81.77
62978;BME280;49073;42.352;23.808;2023-04-30T06:19:16;94467.75;;;10.30;81.48
62978;BME280;49073;42.352;23.808;2023-04-30T06:22:17;94476.75;;;10.41;81.27
62978;BME280;49073;42.352;23.808;2023-04-30T06:25:17;94474.09;;;10.41;80.81
62978;BME280;49073;42.352;23.808;2023-04-30T06:28:19;94473.50;;;10.55;81.70
62978;BME280;49073;42.352;23.808;2023-04-30T06:31:21;94470.50;;;10.57;80.45
62978;BME280;49073;42.352;23.808;2023-04-30T06:34:21;94467.38;;;10.78;79.62
62978;BME280;49073;42.352;23.808;2023-04-30T06:37:23;94470.91;;;11.13;80.01
62978;BME280;49073;42.352;23.808;2023-04-30T06:40:23;94471.25;;;11.11;77.39
62978;BME280;49073;42.352;23.808;2023-04-30T06:43:24;94473.69;;;10.93;79.01
62978;BME280;49073;42.352;23.808;2023-04-30T06:46:25;94469.91;;;10.94;79.79
62978;BME280;49073;42.352;23.808;2023-04-30T06:49:25;94474.22;;;11.06;79.21
62978;BME280;49073;42.352;23.808;2023-04-30T06:52:26;94472.28;;;11.03;79.22
62978;BME280;49073;42.352;23.808;2023-04-30T06:55:26;94478.22;;;11.19;79.24
62978;BME280;49073;42.352;23.808;2023-04-30T06:58:27;94474.06;;;11.22;79.67
62978;BME280;49073;42.352;23.808;2023-04-30T07:01:27;94469.69;;;11.37;78.61
62978;BME280;49073;42.352;23.808;2023-04-30T07:04:28;94478.63;;;11.52;78.50
62978;BME280;49073;42.352;23.808;2023-04-30T07:07:29;94466.16;;;11.63;77.99
62978;BME280;49073;42.352;23.808;2023-04-30T07:10:30;94466.91;;;11.64;77.96
62978;BME280;49073;42.352;23.808;2023-04-30T07:13:31;94463.91;;;11.66;77.46
62978;BME280;49073;42.352;23.808;2023-04-30T07:16:31;94465.53;;;11.77;78.49
62978;BME280;49073;42.352;23.808;2023-04-30T07:19:32;94464.84;;;11.84;77.48
62978;BME280;49073;42.352;23.808;2023-04-30T07:22:32;94468.47;;;12.03;77.73
62978;BME280;49073;42.352;23.808;2023-04-30T07:25:33;94471.19;;;12.06;77.15
62978;BME280;49073;42.352;23.808;2023-04-30T07:28:34;94469.44;;;12.25;77.45
62978;BME280;49073;42.352;23.808;2023-04-30T07:31:35;94468.44;;;12.41;76.00
62978;BME280;49073;42.352;23.808;2023-04-30T07:34:36;94466.22;;;12.50;75.17
62978;BME280;49073;42.352;23.808;2023-04-30T07:37:37;94470.03;;;12.52;75.43
62978;BME280;49073;42.352;23.808;2023-04-30T07:40:38;94474.69;;;12.63;75.02
62978;BME280;49073;42.352;23.808;2023-04-30T07:43:39;94471.72;;;12.72;75.13
62978;BME280;49073;42.352;23.808;2023-04-30T07:46:39;94463.41;;;12.88;73.85
62978;BME280;49073;42.352;23.808;2023-04-30T07:49:39;94465.25;;;13.50;74.65
62978;BME280;49073;42.352;23.808;2023-04-30T07:52:41;94460.03;;;13.90;69.31
62978;BME280;49073;42.352;23.808;2023-04-30T07:55:41;94468.88;;;14.13;60.17
62978;BME280;49073;42.352;23.808;2023-04-30T07:58:42;94466.22;;;14.34;57.54
62978;BME280;49073;42.352;23.808;2023-04-30T08:01:43;94469.28;;;14.47;59.99
62978;BME280;49073;42.352;23.808;2023-04-30T08:04:44;94457.78;;;14.58;56.88
62978;BME280;49073;42.352;23.808;2023-04-30T08:07:44;94468.53;;;14.50;52.59
62978;BME280;49073;42.352;23.808;2023-04-30T08:10:45;94473.47;;;14.59;52.24
62978;BME280;49073;42.352;23.808;2023-04-30T08:13:46;94465.81;;;14.61;50.68
62978;BME280;49073;42.352;23.808;2023-04-30T08:16:47;94463.13;;;14.68;51.13
62978;BME280;49073;42.352;23.808;2023-04-30T08:19:47;94466.25;;;14.78;52.78
62978;BME280;49073;42.352;23.808;2023-04-30T08:22:48;94457.41;;;14.81;51.53
62978;BME280;49073;42.352;23.808;2023-04-30T08:25:48;94464.28;;;14.96;51.71
62978;BME280;49073;42.352;23.808;2023-04-30T08:28:49;94461.97;;;15.06;51.03
62978;BME280;49073;42.352;23.808;2023-04-30T08:31:49;94463.09;;;15.16;51.69
62978;BME280;49073;42.352;23.808;2023-04-30T08:34:50;94463.81;;;15.27;50.74
62978;BME280;49073;42.352;23.808;2023-04-30T08:37:50;94460.28;;;15.48;52.54
62978;BME280;49073;42.352;23.808;2023-04-30T08:41:12;94467.22;;;15.42;48.93
62978;BME280;49073;42.352;23.808;2023-04-30T08:44:13;94461.88;;;15.27;48.28
62978;BME280;49073;42.352;23.808;2023-04-30T08:47:15;94458.41;;;15.41;49.75
62978;BME280;49073;42.352;23.808;2023-04-30T08:50:17;94450.34;;;15.45;49.92
62978;BME280;49073;42.352;23.808;2023-04-30T08:53:18;94461.50;;;15.36;47.98
62978;BME280;49073;42.352;23.808;2023-04-30T08:56:20;94458.81;;;15.40;48.25
62978;BME280;49073;42.352;23.808;2023-04-30T08:59:21;94452.28;;;15.41;48.61
62978;BME280;49073;42.352;23.808;2023-04-30T09:02:21;94449.94;;;15.47;48.41
62978;BME280;49073;42.352;23.808;2023-04-30T09:05:22;94455.97;;;15.69;48.50
62978;BME280;49073;42.352;23.808;2023-04-30T09:11:42;94457.94;;;15.57;47.87
62978;BME280;49073;42.352;23.808;2023-04-30T09:15:02;94454.97;;;15.41;47.95
62978;BME280;49073;42.352;23.808;2023-04-30T09:18:13;94455.28;;;15.54;48.39
62978;BME280;49073;42.352;23.808;2023-04-30T09:21:16;94454.06;;;15.66;48.66
62978;BME280;49073;42.352;23.808;2023-04-30T09:24:45;94447.13;;;15.72;47.83
62978;BME280;49073;42.352;23.808;2023-04-30T09:27:46;94447.13;;;15.76;46.87
62978;BME280;49073;42.352;23.808;2023-04-30T09:30:47;94442.84;;;15.89;48.67
62978;BME280;49073;42.352;23.808;2023-04-30T09:33:47;94445.75;;;16.13;47.03
62978;BME280;49073;42.352;23.808;2023-04-30T09:36:54;94438.09;;;16.11;45.52
62978;BME280;49073;42.352;23.808;2023-04-30T09:39:55;94448.03;;;16.22;46.95
62978;BME280;49073;42.352;23.808;2023-04-30T09:42:59;94443.47;;;16.11;45.98
62978;BME280;49073;42.352;23.808;2023-04-30T09:45:59;94443.84;;;16.13;45.44
62978;BME280;49073;42.352;23.808;2023-04-30T09:49:04;94434.63;;;16.14;45.51
62978;BME280;49073;42.352;23.808;2023-04-30T09:52:05;94432.72;;;16.11;45.03
62978;BME280;49073;42.352;23.808;2023-04-30T09:55:07;94433.53;;;16.08;46.35
62978;BME280;49073;42.352;23.808;2023-04-30T09:58:09;94435.91;;;15.99;46.33
62978;BME280;49073;42.352;23.808;2023-04-30T10:01:10;94444.41;;;15.79;47.38
62978;BME280;49073;42.352;23.808;2023-04-30T10:04:11;94448.34;;;15.60;49.62
62978;BME280;49073;42.352;23.808;2023-04-30T10:07:20;94439.59;;;15.41;48.66
62978;BME280;49073;42.352;23.808;2023-04-30T10:10:21;94448.47;;;15.35;49.93
62978;BME280;49073;42.352;23.808;2023-04-30T10:13:25;94448.34;;;15.60;52.09
62978;BME280;49073;42.352;23.808;2023-04-30T10:19:38;94441.44;;;15.63;49.16
62978;BME280;49073;42.352;23.808;2023-04-30T10:22:41;94450.59;;;15.73;47.57
62978;BME280;49073;42.352;23.808;2023-04-30T10:25:43;94445.97;;;15.73;49.05
62978;BME280;49073;42.352;23.808;2023-04-30T10:28:44;94442.44;;;15.94;50.48
62978;BME280;49073;42.352;23.808;2023-04-30T10:31:48;94431.25;;;15.99;50.81
62978;BME280;49073;42.352;23.808;2023-04-30T10:35:02;94446.84;;;16.26;49.43
62978;BME280;49073;42.352;23.808;2023-04-30T10:38:20;94440.84;;;16.99;49.38
62978;BME280;49073;42.352;23.808;2023-04-30T10:41:25;94436.91;;;17.42;47.46
62978;BME280;49073;42.352;23.808;2023-04-30T10:44:40;94426.63;;;17.64;44.71
62978;BME280;49073;42.352;23.808;2023-04-30T10:47:44;94412.94;;;17.82;47.23
62978;BME280;49073;42.352;23.808;2023-04-30T10:50:49;94400.31;;;17.76;45.79
62978;BME280;49073;42.352;23.808;2023-04-30T10:53:51;94412.94;;;17.82;44.57
62978;BME280;49073;42.352;23.808;2023-04-30T10:57:07;94393.53;;;17.64;45.99
62978;BME280;49073;42.352;23.808;2023-04-30T11:03:10;94403.22;;;17.88;45.70
62978;BME280;49073;42.352;23.808;2023-04-30T11:06:13;94390.69;;;18.29;45.66
62978;BME280;49073;42.352;23.808;2023-04-30T11:09:14;94390.47;;;17.62;44.14
62978;BME280;49073;42.352;23.808;2023-04-30T11:12:19;94393.25;;;17.58;45.13
62978;BME280;49073;42.352;23.808;2023-04-30T11:15:33;94399.19;;;17.45;46.45
62978;BME280;49073;42.352;23.808;2023-04-30T11:18:45;94389.88;;;17.19;44.60
62978;BME280;49073;42.352;23.808;2023-04-30T11:25:17;94416.09;;;16.27;54.93
62978;BME280;49073;42.352;23.808;2023-04-30T11:28:24;94430.22;;;15.79;59.67
62978;BME280;49073;42.352;23.808;2023-04-30T11:31:32;94437.00;;;15.16;61.89
62978;BME280;49073;42.352;23.808;2023-04-30T11:34:33;94445.53;;;14.89;63.74
62978;BME280;49073;42.352;23.808;2023-04-30T11:37:37;94452.44;;;14.83;66.64
62978;BME280;49073;42.352;23.808;2023-04-30T11:40:39;94455.88;;;14.80;68.34
62978;BME280;49073;42.352;23.808;2023-04-30T11:43:39;94454.31;;;15.01;69.07
62978;BME280;49073;42.352;23.808;2023-04-30T11:46:40;94454.25;;;15.19;70.74
62978;BME280;49073;42.352;23.808;2023-04-30T11:49:42;94446.56;;;15.28;67.61
62978;BME280;49073;42.352;23.808;2023-04-30T11:52:50;94464.19;;;15.33;66.44
62978;BME280;49073;42.352;23.808;2023-04-30T11:55:54;94453.44;;;15.36;67.06
62978;BME280;49073;42.352;23.808;2023-04-30T11:58:59;94459.19;;;15.42;67.56
62978;BME280;49073;42.352;23.808;2023-04-30T12:02:00;94473.75;;;15.37;68.31
62978;BME280;49073;42.352;23.808;2023-04-30T12:05:01;94494.47;;;15.30;67.74
62978;BME280;49073;42.352;23.808;2023-04-30T12:08:05;94509.88;;;14.60;67.31
62978;BME280;49073;42.352;23.808;2023-04-30T12:14:23;94554.09;;;13.07;80.05
62978;BME280;49073;42.352;23.808;2023-04-30T12:17:33;94548.19;;;12.84;83.22
62978;BME280;49073;42.352;23.808;2023-04-30T12:20:34;94543.56;;;12.77;83.56
62978;BME280;49073;42.352;23.808;2023-04-30T12:23:35;94544.78;;;12.87;84.16
62978;BME280;49073;42.352;23.808;2023-04-30T12:26:40;94541.38;;;12.90;82.13
62978;BME280;49073;42.352;23.808;2023-04-30T12:29:44;94540.31;;;13.02;85.24
62978;BME280;49073;42.352;23.808;2023-04-30T12:32:49;94536.97;;;13.19;85.47
62978;BME280;49073;42.352;23.808;2023-04-30T12:35:51;94534.69;;;13.25;85.21
62978;BME280;49073;42.352;23.808;2023-04-30T12:39:00;94528.66;;;13.35;82.38
62978;BME280;49073;42.352;23.808;2023-04-30T12:42:02;94525.28;;;13.42;79.67
62978;BME280;49073;42.352;23.808;2023-04-30T12:45:03;94527.66;;;13.62;79.69
62978;BME280;49073;42.352;23.808;2023-04-30T12:48:04;94522.38;;;13.80;78.48
62978;BME280;49073;42.352;23.808;2023-04-30T12:51:05;94522.03;;;13.96;76.90
62978;BME280;49073;42.352;23.808;2023-04-30T12:54:06;94523.59;;;14.11;77.98
62978;BME280;49073;42.352;23.808;2023-04-30T12:57:09;94506.38;;;14.09;77.32
62978;BME280;49073;42.352;23.808;2023-04-30T13:00:10;94500.97;;;13.87;76.94
62978;BME280;49073;42.352;23.808;2023-04-30T13:03:18;94495.31;;;14.32;79.16
62978;BME280;49073;42.352;23.808;2023-04-30T13:06:22;94485.75;;;14.49;74.32
62978;BME280;49073;42.352;23.808;2023-04-30T13:09:23;94479.25;;;14.83;71.88
62978;BME280;49073;42.352;23.808;2023-04-30T13:12:23;94465.19;;;15.68;69.63
62978;BME280;49073;42.352;23.808;2023-04-30T13:15:24;94471.19;;;16.01;67.18
62978;BME280;49073;42.352;23.808;2023-04-30T13:18:25;94458.34;;;16.27;65.73
62978;BME280;49073;42.352;23.808;2023-04-30T13:21:25;94453.97;;;16.48;62.43
62978;BME280;49073;42.352;23.808;2023-04-30T13:24:27;94453.03;;;16.16;61.52
62978;BME280;49073;42.352;23.808;2023-04-30T13:27:27;94449.88;;;15.61;59.31
62978;BME280;49073;42.352;23.808;2023-04-30T13:30:28;94449.94;;;15.47;62.10
62978;BME280;49073;42.352;23.808;2023-04-30T13:33:28;94451.38;;;15.66;69.07
62978;BME280;49073;42.352;23.808;2023-04-30T13:36:29;94448.56;;;15.98;66.61
62978;BME280;49073;42.352;23.808;2023-04-30T13:39:30;94451.69;;;15.82;66.59
62978;BME280;49073;42.352;23.808;2023-04-30T13:42:30;94447.88;;;15.80;66.21
62978;BME280;49073;42.352;23.808;2023-04-30T13:45:31;94449.72;;;15.86;65.01
62978;BME280;49073;42.352;23.808;2023-04-30T13:48:32;94451.78;;;15.64;62.45
62978;BME280;49073;42.352;23.808;2023-04-30T13:51:33;94442.59;;;15.58;64.22
62978;BME280;49073;42.352;23.808;2023-04-30T13:54:33;94434.19;;;15.52;66.52
62978;BME280;49073;42.352;23.808;2023-04-30T13:57:34;94428.09;;;15.41;66.63
62978;BME280;49073;42.352;23.808;2023-04-30T14:00:35;94435.78;;;15.35;67.72
62978;BME280;49073;42.352;23.808;2023-04-30T14:03:35;94436.56;;;15.32;67.61
62978;BME280;49073;42.352;23.808;2023-04-30T14:06:36;94440.78;;;15.37;65.42
62978;BME280;49073;42.352;23.808;2023-04-30T14:09:38;94444.25;;;15.34;66.11
62978;BME280;49073;42.352;23.808;2023-04-30T14:12:40;94442.41;;;15.12;66.41
62978;BME280;49073;42.352;23.808;2023-04-30T14:15:40;94442.38;;;15.20;66.93
62978;BME280;49073;42.352;23.808;2023-04-30T14:18:41;94439.31;;;15.18;64.88
62978;BME280;49073;42.352;23.808;2023-04-30T14:21:43;94451.97;;;15.17;64.30
62978;BME280;49073;42.352;23.808;2023-04-30T14:24:43;94443.16;;;15.13;62.84
62978;BME280;49073;42.352;23.808;2023-04-30T14:27:44;94442.34;;;15.23;64.66
62978;BME280;49073;42.352;23.808;2023-04-30T14:30:46;94451.59;;;15.19;63.96
62978;BME280;49073;42.352;23.808;2023-04-30T14:33:47;94442.34;;;15.27;63.41
62978;BME280;49073;42.352;23.808;2023-04-30T14:36:48;94436.13;;;15.45;62.34
62978;BME280;49073;42.352;23.808;2023-04-30T14:39:48;94441.31;;;15.92;63.07
62978;BME280;49073;42.352;23.808;2023-04-30T14:42:49;94440.09;;;16.00;61.42
62978;BME280;49073;42.352;23.808;2023-04-30T14:45:50;94432.00;;;16.07;63.57
62978;BME280;49073;42.352;23.808;2023-04-30T14:48:51;94431.00;;;15.76;62.14
62978;BME280;49073;42.352;23.808;2023-04-30T14:51:52;94428.06;;;15.45;61.50
62978;BME280;49073;42.352;23.808;2023-04-30T14:54:52;94433.53;;;15.23;61.91
62978;BME280;49073;42.352;23.808;2023-04-30T14:57:53;94432.00;;;15.22;62.55
62978;BME280;49073;42.352;23.808;2023-04-30T15:00:53;94438.91;;;15.23;62.29
62978;BME280;49073;42.352;23.808;2023-04-30T15:03:54;94435.75;;;15.46;59.22
62978;BME280;49073;42.352;23.808;2023-04-30T15:06:54;94431.88;;;15.51;60.92
62978;BME280;49073;42.352;23.808;2023-04-30T15:09:55;94435.66;;;15.68;61.49
62978;BME280;49073;42.352;23.808;2023-04-30T15:12:55;94433.75;;;15.65;60.83
62978;BME280;49073;42.352;23.808;2023-04-30T15:15:56;94434.56;;;15.54;61.14
62978;BME280;49073;42.352;23.808;2023-04-30T15:18:58;94435.84;;;15.17;62.41
62978;BME280;49073;42.352;23.808;2023-04-30T15:21:58;94432.00;;;15.18;63.33
62978;BME280;49073;42.352;23.808;2023-04-30T15:24:59;94432.44;;;15.09;63.92
62978;BME280;49073;42.352;23.808;2023-04-30T15:27:59;94430.09;;;15.15;63.79
62978;BME280;49073;42.352;23.808;2023-04-30T15:31:00;94426.66;;;15.11;63.20
62978;BME280;49073;42.352;23.808;2023-04-30T15:34:02;94430.50;;;15.10;64.09
62978;BME280;49073;42.352;23.808;2023-04-30T15:37:02;94427.81;;;15.10;64.27
62978;BME280;49073;42.352;23.808;2023-04-30T15:40:04;94417.50;;;15.05;63.30
62978;BME280;49073;42.352;23.808;2023-04-30T15:43:04;94417.13;;;15.06;63.18
62978;BME280;49073;42.352;23.808;2023-04-30T15:46:05;94419.44;;;14.90;62.90
62978;BME280;49073;42.352;23.808;2023-04-30T15:49:05;94409.09;;;14.92;63.70
62978;BME280;49073;42.352;23.808;2023-04-30T15:52:06;94410.59;;;15.04;65.92
62978;BME280;49073;42.352;23.808;2023-04-30T15:55:07;94412.84;;;15.16;67.97
62978;BME280;49073;42.352;23.808;2023-04-30T15:58:11;94407.91;;;15.07;67.91
62978;BME280;49073;42.352;23.808;2023-04-30T16:01:12;94404.47;;;15.03;70.42
62978;BME280;49073;42.352;23.808;2023-04-30T16:04:13;94401.44;;;14.90;69.89
62978;BME280;49073;42.352;23.808;2023-04-30T16:07:13;94407.22;;;14.78;70.84
62978;BME280;49073;42.352;23.808;2023-04-30T16:10:14;94409.53;;;14.72;72.55
62978;BME280;49073;42.352;23.808;2023-04-30T16:13:15;94412.59;;;14.78;71.18
62978;BME280;49073;42.352;23.808;2023-04-30T16:16:16;94407.19;;;14.92;68.05
62978;BME280;49073;42.352;23.808;2023-04-30T16:19:17;94414.06;;;14.97;67.80
62978;BME280;49073;42.352;23.808;2023-04-30T16:22:17;94409.84;;;15.03;67.38
62978;BME280;49073;42.352;23.808;2023-04-30T16:25:21;94415.19;;;15.07;66.73